createdAt,value
2023-03-29T00:00:24.206Z,5.50
2023-03-29T00:02:51.569Z,5.40
2023-03-29T00:05:23.074Z,5.40
2023-03-29T00:07:54.288Z,5.40
2023-03-29T00:10:24.069Z,5.30
2023-03-29T00:12:52.520Z,5.30
2023-03-29T00:15:19.985Z,5.40
2023-03-29T00:17:46.823Z,5.30
2023-03-29T00:20:13.894Z,5.30
2023-03-29T00:22:44.457Z,5.30
2023-03-29T00:25:12.579Z,5.20
2023-03-29T00:27:40.329Z,5.10
2023-03-29T00:30:08.953Z,5.10
2023-03-29T00:32:35.927Z,5.10
2023-03-29T00:35:05.090Z,5.10
2023-03-29T00:37:32.255Z,5.20
2023-03-29T00:39:59.178Z,5.10
2023-03-29T00:42:26.789Z,5.10
2023-03-29T00:45:07.282Z,5.10
2023-03-29T00:47:38.981Z,5.10
2023-03-29T00:50:16.818Z,5.00
2023-03-29T00:52:48.644Z,5.00
2023-03-29T00:55:21.707Z,5.00
2023-03-29T00:57:50.058Z,5.00
2023-03-29T01:00:21.807Z,4.90
2023-03-29T01:02:54.141Z,4.90
2023-03-29T01:05:37.739Z,4.90
2023-03-29T01:08:11.133Z,4.80
2023-03-29T01:10:56.623Z,4.80
2023-03-29T01:13:35.757Z,4.80
2023-03-29T01:16:03.694Z,4.70
2023-03-29T01:18:31.423Z,4.70
2023-03-29T01:21:20.481Z,4.70
2023-03-29T01:23:58.317Z,4.60
2023-03-29T01:26:53.851Z,4.60
2023-03-29T01:29:47.987Z,4.60
2023-03-29T01:32:47.905Z,4.60
2023-03-29T01:35:32.671Z,4.60
2023-03-29T01:38:09.337Z,4.60
2023-03-29T01:40:36.494Z,4.50
2023-03-29T01:43:07.442Z,4.50
2023-03-29T01:45:48.005Z,4.60
2023-03-29T01:48:51.077Z,4.50
2023-03-29T01:51:38.733Z,4.50
2023-03-29T01:54:20.639Z,4.50
2023-03-29T01:56:50.461Z,4.50
2023-03-29T01:59:22.222Z,4.50
2023-03-29T02:01:53.061Z,4.50
2023-03-29T02:04:29.082Z,4.50
2023-03-29T02:06:59.499Z,4.50
2023-03-29T02:09:28.765Z,4.60
2023-03-29T02:11:58.527Z,4.30
2023-03-29T02:14:25.851Z,4.30
2023-03-29T02:16:52.733Z,4.40
2023-03-29T02:19:20.419Z,4.40
2023-03-29T02:22:09.615Z,4.40
2023-03-29T02:24:38.898Z,4.50
2023-03-29T02:27:06.102Z,4.40
2023-03-29T02:29:33.071Z,4.40
2023-03-29T02:32:07.514Z,4.40
2023-03-29T02:34:37.629Z,4.50
2023-03-29T02:37:10.379Z,4.40
2023-03-29T02:39:38.320Z,4.40
2023-03-29T02:42:07.437Z,4.30
2023-03-29T02:44:38.607Z,4.40
2023-03-29T02:47:25.032Z,4.30
2023-03-29T02:49:52.306Z,4.30
2023-03-29T02:52:25.724Z,4.30
2023-03-29T02:54:54.954Z,4.30
2023-03-29T02:57:26.637Z,4.30
2023-03-29T02:59:58.865Z,4.20
2023-03-29T03:02:26.037Z,4.20
2023-03-29T03:04:53.520Z,4.20
2023-03-29T03:07:21.034Z,4.20
2023-03-29T03:09:48.463Z,4.20
2023-03-29T03:12:15.475Z,4.20
2023-03-29T03:14:42.323Z,4.20
2023-03-29T03:17:09.124Z,4.20
2023-03-29T03:19:36.378Z,4.30
2023-03-29T03:22:05.898Z,4.20
2023-03-29T03:24:32.837Z,4.20
2023-03-29T03:26:59.727Z,4.30
2023-03-29T03:29:28.401Z,4.30
2023-03-29T03:31:55.749Z,4.30
2023-03-29T03:34:23.057Z,4.40
2023-03-29T03:36:50.358Z,4.30
2023-03-29T03:39:17.413Z,4.30
2023-03-29T03:41:44.237Z,4.30
2023-03-29T03:44:11.886Z,4.40
2023-03-29T03:46:38.757Z,4.30
2023-03-29T03:49:05.776Z,4.30
2023-03-29T03:51:32.749Z,4.30
2023-03-29T03:53:59.749Z,4.40
2023-03-29T03:56:29.877Z,4.40
2023-03-29T03:58:57.119Z,4.30
2023-03-29T04:01:24.498Z,4.40
2023-03-29T04:03:51.485Z,4.40
2023-03-29T04:06:18.615Z,4.30
2023-03-29T04:08:45.559Z,4.40
2023-03-29T04:11:12.579Z,4.40
2023-03-29T04:13:39.542Z,4.30
2023-03-29T04:16:07.283Z,4.50
2023-03-29T04:18:34.305Z,4.30
2023-03-29T04:21:01.368Z,4.30
2023-03-29T04:23:28.607Z,4.30
2023-03-29T04:25:56.688Z,4.30
2023-03-29T04:28:23.638Z,4.30
2023-03-29T04:30:50.757Z,4.30
2023-03-29T04:33:17.737Z,4.20
2023-03-29T04:35:44.827Z,4.20
2023-03-29T04:38:11.726Z,4.30
2023-03-29T04:40:38.560Z,4.40
2023-03-29T04:43:05.439Z,4.30
2023-03-29T04:45:32.277Z,4.30
2023-03-29T04:48:02.636Z,4.30
2023-03-29T04:50:29.664Z,4.40
2023-03-29T04:52:56.952Z,4.30
2023-03-29T04:55:23.793Z,4.40
2023-03-29T04:57:51.225Z,4.30
2023-03-29T05:00:20.371Z,4.30
2023-03-29T05:02:47.434Z,4.30
2023-03-29T05:05:14.366Z,4.40
2023-03-29T05:07:41.664Z,4.30
2023-03-29T05:10:09.713Z,4.30
2023-03-29T05:12:36.802Z,4.40
2023-03-29T05:15:08.181Z,4.50
2023-03-29T05:17:35.417Z,4.50
2023-03-29T05:20:07.208Z,4.50
2023-03-29T05:22:34.012Z,4.40
2023-03-29T05:25:00.860Z,4.50
2023-03-29T05:27:27.810Z,4.40
2023-03-29T05:29:55.179Z,4.40
2023-03-29T05:32:22.252Z,4.40
2023-03-29T05:34:49.093Z,4.50
2023-03-29T05:37:16.151Z,4.50
2023-03-29T05:39:43.131Z,4.60
2023-03-29T05:42:13.589Z,4.60
2023-03-29T05:44:40.636Z,4.50
2023-03-29T05:47:07.683Z,4.70
2023-03-29T05:49:34.498Z,4.60
2023-03-29T05:52:01.317Z,4.60
2023-03-29T05:54:28.173Z,4.60
2023-03-29T05:56:55.070Z,4.60
2023-03-29T05:59:23.586Z,4.60
2023-03-29T06:01:51.940Z,4.70
2023-03-29T06:04:19.002Z,4.60
2023-03-29T06:06:46.402Z,4.60
2023-03-29T06:09:13.434Z,4.60
2023-03-29T06:11:40.825Z,4.80
2023-03-29T06:14:07.857Z,4.70
2023-03-29T06:16:35.098Z,4.90
2023-03-29T06:19:01.993Z,4.80
2023-03-29T06:21:28.966Z,4.80
2023-03-29T06:23:55.782Z,4.70
2023-03-29T06:26:22.769Z,4.70
2023-03-29T06:28:52.108Z,4.80
2023-03-29T06:31:19.954Z,4.80
2023-03-29T06:33:47.282Z,4.90
2023-03-29T06:36:16.220Z,5.00
2023-03-29T06:38:45.631Z,5.10
2023-03-29T06:41:12.512Z,5.10
2023-03-29T06:43:39.818Z,5.10
2023-03-29T06:46:11.954Z,5.20
2023-03-29T06:48:39.785Z,5.10
2023-03-29T06:51:07.636Z,5.10
2023-03-29T06:53:35.408Z,5.10
2023-03-29T06:56:09.095Z,5.30
2023-03-29T06:58:36.965Z,5.30
2023-03-29T07:01:04.697Z,5.20
2023-03-29T07:03:33.886Z,5.20
2023-03-29T07:06:09.844Z,5.30
2023-03-29T07:08:47.387Z,5.40
2023-03-29T07:11:15.589Z,5.40
2023-03-29T07:13:43.098Z,5.50
2023-03-29T07:16:12.875Z,5.50
2023-03-29T07:18:41.830Z,5.50
2023-03-29T07:21:10.590Z,5.60
2023-03-29T07:23:37.548Z,5.60
2023-03-29T07:26:07.953Z,5.70
2023-03-29T07:28:37.370Z,5.70
2023-03-29T07:31:10.838Z,5.70
2023-03-29T07:33:39.237Z,5.80
2023-03-29T07:36:07.538Z,5.80
2023-03-29T07:38:34.440Z,5.80
2023-03-29T07:41:07.903Z,5.90
2023-03-29T07:43:35.261Z,5.90
2023-03-29T07:46:29.246Z,5.80
2023-03-29T07:48:56.775Z,5.90
2023-03-29T07:51:23.999Z,5.90
2023-03-29T07:53:51.128Z,6.00
2023-03-29T07:56:17.949Z,6.00
2023-03-29T07:58:44.817Z,6.00
2023-03-29T08:01:17.989Z,6.10
2023-03-29T08:03:46.485Z,6.20
2023-03-29T08:06:13.406Z,6.20
2023-03-29T08:08:40.265Z,6.30
2023-03-29T08:11:10.076Z,6.30
2023-03-29T08:13:37.398Z,6.30
2023-03-29T08:16:05.865Z,6.50
2023-03-29T08:18:34.725Z,6.50
2023-03-29T08:21:02.206Z,6.60
2023-03-29T08:23:29.142Z,6.60
2023-03-29T08:25:56.238Z,6.70
2023-03-29T08:28:23.278Z,6.80
2023-03-29T08:30:50.364Z,6.80
2023-03-29T08:33:17.387Z,6.90
2023-03-29T08:35:44.359Z,7.00
2023-03-29T08:38:12.510Z,7.10
2023-03-29T08:40:39.790Z,7.10
2023-03-29T08:43:23.938Z,7.10
2023-03-29T08:46:00.107Z,7.10
2023-03-29T08:48:31.528Z,7.30
2023-03-29T08:51:03.497Z,7.20
2023-03-29T08:54:05.319Z,7.20
2023-03-29T08:56:36.083Z,7.30
2023-03-29T08:59:04.190Z,7.40
2023-03-29T09:01:35.532Z,7.40
2023-03-29T09:04:22.735Z,7.40
2023-03-29T09:06:50.186Z,7.50
2023-03-29T09:09:28.453Z,7.60
2023-03-29T09:12:01.847Z,7.60
2023-03-29T09:14:31.540Z,7.90
2023-03-29T09:17:15.332Z,7.80
2023-03-29T09:20:08.059Z,7.80
2023-03-29T09:22:57.700Z,7.90
2023-03-29T09:25:50.789Z,7.70
2023-03-29T09:28:22.583Z,7.80
2023-03-29T09:31:01.553Z,7.80
2023-03-29T09:33:57.637Z,7.70
2023-03-29T09:36:36.365Z,7.60
2023-03-29T09:39:04.562Z,7.60
2023-03-29T09:41:41.218Z,7.50
2023-03-29T09:44:30.220Z,7.50
2023-03-29T09:47:14.236Z,7.50
2023-03-29T09:49:47.868Z,7.40
2023-03-29T09:52:17.046Z,7.40
2023-03-29T09:54:44.556Z,7.50
2023-03-29T09:57:17.669Z,7.60
2023-03-29T09:59:46.979Z,7.60
2023-03-29T10:02:14.724Z,7.60
2023-03-29T10:04:42.996Z,7.60
2023-03-29T10:07:20.593Z,7.60
2023-03-29T10:09:50.610Z,7.60
2023-03-29T10:12:17.615Z,7.60
2023-03-29T10:14:53.628Z,7.70
2023-03-29T10:17:23.413Z,7.60
2023-03-29T10:19:52.761Z,7.70
2023-03-29T10:22:32.027Z,7.90
2023-03-29T10:24:58.848Z,7.80
2023-03-29T10:27:28.936Z,7.90
2023-03-29T10:29:58.307Z,7.90
2023-03-29T10:32:36.920Z,7.90
2023-03-29T10:35:13.601Z,8.00
2023-03-29T10:37:43.497Z,8.10
2023-03-29T10:40:23.798Z,8.10
2023-03-29T10:42:53.807Z,8.10
2023-03-29T10:45:34.085Z,8.10
2023-03-29T10:48:03.637Z,8.20
2023-03-29T10:50:38.229Z,8.10
2023-03-29T10:53:19.892Z,8.10
2023-03-29T10:56:12.737Z,8.10
2023-03-29T10:59:16.579Z,8.10
2023-03-29T11:02:07.673Z,8.10
2023-03-29T11:04:57.346Z,8.10
2023-03-29T11:07:46.015Z,8.00
2023-03-29T11:10:29.227Z,8.00
2023-03-29T11:13:19.494Z,8.10
2023-03-29T11:15:58.649Z,8.10
2023-03-29T11:18:34.109Z,8.10
2023-03-29T11:21:16.361Z,8.10
2023-03-29T11:23:49.838Z,8.20
2023-03-29T11:26:23.312Z,8.20
2023-03-29T11:28:56.316Z,8.30
2023-03-29T11:31:23.131Z,8.40
2023-03-29T11:34:03.695Z,8.60
2023-03-29T11:37:27.314Z,8.80
2023-03-29T11:40:12.416Z,8.90
2023-03-29T11:42:42.968Z,8.90
2023-03-29T11:45:20.520Z,9.10
2023-03-29T11:47:48.465Z,9.10
2023-03-29T11:50:25.641Z,9.20
2023-03-29T11:53:09.119Z,9.20
2023-03-29T11:55:41.424Z,9.20
2023-03-29T11:58:42.974Z,9.20
2023-03-29T12:01:47.378Z,9.20
2023-03-29T12:04:29.913Z,9.00
2023-03-29T12:07:09.294Z,9.00
2023-03-29T12:09:38.909Z,8.90
2023-03-29T12:12:27.181Z,8.90
2023-03-29T12:15:17.136Z,8.90
2023-03-29T12:17:51.126Z,8.90
2023-03-29T12:20:28.562Z,8.80
2023-03-29T12:22:56.091Z,8.90
2023-03-29T12:25:42.747Z,9.00
2023-03-29T12:28:25.951Z,9.10
2023-03-29T12:31:31.311Z,9.00
2023-03-29T12:33:58.107Z,9.20
2023-03-29T12:36:52.117Z,9.30
2023-03-29T12:39:20.929Z,9.40
2023-03-29T12:41:51.695Z,9.40
2023-03-29T12:44:22.557Z,9.40
2023-03-29T12:46:59.000Z,9.40
2023-03-29T12:49:32.658Z,9.40
2023-03-29T12:52:00.613Z,9.40
2023-03-29T12:54:34.084Z,9.30
2023-03-29T12:57:18.327Z,9.30
2023-03-29T12:59:47.781Z,9.30
2023-03-29T13:02:14.860Z,9.30
2023-03-29T13:04:52.469Z,9.30
2023-03-29T13:07:22.345Z,9.30
2023-03-29T13:09:59.549Z,9.40
2023-03-29T13:12:50.941Z,9.40
2023-03-29T13:15:17.868Z,9.50
2023-03-29T13:17:58.871Z,9.50
2023-03-29T13:20:55.804Z,9.50
2023-03-29T13:23:44.201Z,9.60
2023-03-29T13:26:36.078Z,9.70
2023-03-29T13:29:39.916Z,9.80
2023-03-29T13:32:07.270Z,9.90
2023-03-29T13:34:43.432Z,9.70
2023-03-29T13:37:32.198Z,9.70
2023-03-29T13:39:59.206Z,9.70
2023-03-29T13:42:35.425Z,9.80
2023-03-29T13:45:13.176Z,9.90
2023-03-29T13:47:58.369Z,10.00
2023-03-29T13:50:51.556Z,10.10
2023-03-29T13:53:33.665Z,10.10
2023-03-29T13:56:01.265Z,10.20
2023-03-29T13:58:43.400Z,10.10
2023-03-29T14:01:17.086Z,10.10
2023-03-29T14:03:46.223Z,10.10
2023-03-29T14:06:16.930Z,10.20
2023-03-29T14:08:44.902Z,10.10
2023-03-29T14:11:26.784Z,10.10
2023-03-29T14:13:55.508Z,10.00
2023-03-29T14:16:23.530Z,9.90
2023-03-29T14:18:52.263Z,9.90
2023-03-29T14:21:21.050Z,9.90
2023-03-29T14:24:02.441Z,9.90
2023-03-29T14:26:34.652Z,9.90
2023-03-29T14:29:02.839Z,10.00
2023-03-29T14:31:33.417Z,10.10
2023-03-29T14:34:02.240Z,10.00
2023-03-29T14:36:31.118Z,10.10
2023-03-29T14:39:02.889Z,10.20
2023-03-29T14:41:35.552Z,10.20
2023-03-29T14:44:04.623Z,10.10
2023-03-29T14:46:33.781Z,10.10
2023-03-29T14:49:02.289Z,10.10
2023-03-29T14:51:31.099Z,10.00
2023-03-29T14:54:00.339Z,9.90
2023-03-29T14:56:27.664Z,9.90
2023-03-29T14:58:56.636Z,9.80
2023-03-29T15:01:25.988Z,9.80
2023-03-29T15:03:56.604Z,9.70
2023-03-29T15:06:25.658Z,9.80
2023-03-29T15:09:04.315Z,9.70
2023-03-29T15:11:34.342Z,9.70
2023-03-29T15:14:13.936Z,9.90
2023-03-29T15:16:43.595Z,9.70
2023-03-29T15:19:17.138Z,9.70
2023-03-29T15:21:45.323Z,9.70
2023-03-29T15:24:27.711Z,9.60
2023-03-29T15:27:05.523Z,9.70
2023-03-29T15:29:42.306Z,9.70
2023-03-29T15:32:19.929Z,9.70
2023-03-29T15:34:47.422Z,9.70
2023-03-29T15:37:14.360Z,9.60
2023-03-29T15:39:44.131Z,9.70
2023-03-29T15:42:11.720Z,9.70
2023-03-29T15:44:39.225Z,9.70
2023-03-29T15:47:13.206Z,9.70
2023-03-29T15:49:40.066Z,9.70
2023-03-29T15:52:07.054Z,9.70
2023-03-29T15:54:34.968Z,9.70
2023-03-29T15:57:06.432Z,9.80
2023-03-29T15:59:34.205Z,9.80
2023-03-29T16:02:01.233Z,9.80
2023-03-29T16:04:28.247Z,9.70
2023-03-29T16:06:55.610Z,9.70
2023-03-29T16:09:23.348Z,9.80
2023-03-29T16:11:50.636Z,9.80
2023-03-29T16:14:30.385Z,9.80
2023-03-29T16:16:59.486Z,9.70
2023-03-29T16:19:27.956Z,9.70
2023-03-29T16:21:55.340Z,9.70
2023-03-29T16:24:24.854Z,9.60
2023-03-29T16:26:55.396Z,9.50
2023-03-29T16:29:23.323Z,9.40
2023-03-29T16:31:50.486Z,9.50
2023-03-29T16:34:19.149Z,9.50
2023-03-29T16:36:47.743Z,9.40
2023-03-29T16:39:15.908Z,9.40
2023-03-29T16:41:43.215Z,9.40
2023-03-29T16:44:16.840Z,9.40
2023-03-29T16:46:44.481Z,9.50
2023-03-29T16:49:18.754Z,9.50
2023-03-29T16:51:48.770Z,9.40
2023-03-29T16:54:19.884Z,9.40
2023-03-29T16:56:47.167Z,9.40
2023-03-29T16:59:14.268Z,9.30
2023-03-29T17:01:41.199Z,9.40
2023-03-29T17:04:08.541Z,9.30
2023-03-29T17:06:36.012Z,9.30
2023-03-29T17:09:04.976Z,9.30
2023-03-29T17:11:31.985Z,9.30
2023-03-29T17:13:59.045Z,9.30
2023-03-29T17:16:28.870Z,9.20
2023-03-29T17:19:00.150Z,9.10
2023-03-29T17:21:28.754Z,9.10
2023-03-29T17:23:55.695Z,9.10
2023-03-29T17:26:22.564Z,9.00
2023-03-29T17:28:49.535Z,9.00
2023-03-29T17:31:16.955Z,9.00
2023-03-29T17:33:43.997Z,9.00
2023-03-29T17:36:11.219Z,9.00
2023-03-29T17:38:38.305Z,9.00
2023-03-29T17:41:06.982Z,9.00
2023-03-29T17:43:34.074Z,9.00
2023-03-29T17:46:01.309Z,9.00
2023-03-29T17:48:28.528Z,9.00
2023-03-29T17:50:56.819Z,8.90
2023-03-29T17:53:24.081Z,8.90
2023-03-29T17:55:51.339Z,8.90
2023-03-29T17:58:19.422Z,8.80
2023-03-29T18:00:46.407Z,8.80
2023-03-29T18:03:13.417Z,8.80
2023-03-29T18:05:40.717Z,8.80
2023-03-29T18:08:08.690Z,8.80
2023-03-29T18:10:36.831Z,8.80
2023-03-29T18:13:03.814Z,8.70
2023-03-29T18:17:58.044Z,8.60
2023-03-29T18:20:24.851Z,8.70
2023-03-29T18:22:51.690Z,8.80
2023-03-29T18:25:19.976Z,8.80
2023-03-29T18:27:46.786Z,8.70
2023-03-29T18:30:16.580Z,8.70
2023-03-29T18:32:43.524Z,8.70
2023-03-29T18:35:10.671Z,8.70
2023-03-29T18:37:37.768Z,8.70
2023-03-29T18:40:08.079Z,8.80
2023-03-29T18:42:34.948Z,8.80
2023-03-29T18:45:01.913Z,8.80
2023-03-29T18:47:29.160Z,8.80
2023-03-29T18:49:56.143Z,8.90
2023-03-29T18:52:23.388Z,8.90
2023-03-29T18:54:50.426Z,8.80
2023-03-29T18:57:17.354Z,8.90
2023-03-29T18:59:44.188Z,9.00
2023-03-29T19:02:11.152Z,8.90
2023-03-29T19:04:37.965Z,8.80
2023-03-29T19:07:04.833Z,8.80
2023-03-29T19:09:31.759Z,8.80
2023-03-29T19:11:58.656Z,8.80
2023-03-29T19:14:25.796Z,8.90
2023-03-29T19:16:53.151Z,8.90
2023-03-29T19:19:22.600Z,9.00
2023-03-29T19:21:50.054Z,8.80
2023-03-29T19:24:17.360Z,8.80
2023-03-29T19:26:44.747Z,8.70
2023-03-29T19:29:11.644Z,8.70
2023-03-29T19:31:38.756Z,8.70
2023-03-29T19:34:06.984Z,8.70
2023-03-29T19:36:34.084Z,8.70
2023-03-29T19:39:01.241Z,8.80
2023-03-29T19:41:28.300Z,8.80
2023-03-29T19:43:55.554Z,8.90
2023-03-29T19:46:22.969Z,8.80
2023-03-29T19:48:51.769Z,8.80
2023-03-29T19:51:19.474Z,8.80
2023-03-29T19:53:47.239Z,8.90
2023-03-29T19:56:14.896Z,8.80
2023-03-29T19:58:42.025Z,8.80
2023-03-29T20:01:08.922Z,8.80
2023-03-29T20:03:36.162Z,8.80
2023-03-29T20:06:03.781Z,8.80
2023-03-29T20:08:30.915Z,8.70
2023-03-29T20:11:03.336Z,8.80
2023-03-29T20:13:38.298Z,8.90
2023-03-29T20:16:11.310Z,8.90
2023-03-29T20:18:44.812Z,8.80
2023-03-29T20:21:16.653Z,8.80
2023-03-29T20:23:44.550Z,8.80
2023-03-29T20:26:11.913Z,8.80
2023-03-29T20:28:38.863Z,8.90
2023-03-29T20:31:10.459Z,8.80
2023-03-29T20:33:37.627Z,8.80
2023-03-29T20:36:04.825Z,8.80
2023-03-29T20:38:32.030Z,8.80
2023-03-29T20:40:59.107Z,8.80
2023-03-29T20:43:26.048Z,8.80
2023-03-29T20:45:54.334Z,8.80
2023-03-29T20:48:23.411Z,8.90
2023-03-29T20:50:50.773Z,8.90
2023-03-29T20:53:18.385Z,8.80
2023-03-29T20:55:45.364Z,8.80
2023-03-29T20:58:12.242Z,8.80
2023-03-29T21:00:40.435Z,8.80
2023-03-29T21:03:08.625Z,8.80
2023-03-29T21:05:35.785Z,8.80
2023-03-29T21:08:04.412Z,8.90
2023-03-29T21:10:31.386Z,8.90
2023-03-29T21:13:02.460Z,8.90
2023-03-29T21:15:33.178Z,8.90
2023-03-29T21:18:00.176Z,8.80
2023-03-29T21:20:27.645Z,8.70
2023-03-29T21:22:54.744Z,8.70
2023-03-29T21:25:21.727Z,8.70
2023-03-29T21:27:49.125Z,8.70
2023-03-29T21:30:16.101Z,8.90
2023-03-29T21:32:42.978Z,8.80
2023-03-29T21:35:10.325Z,8.80
2023-03-29T21:37:37.171Z,8.70
2023-03-29T21:40:10.375Z,8.70
2023-03-29T21:42:37.215Z,8.80
2023-03-29T21:45:04.599Z,8.70
2023-03-29T21:47:31.508Z,8.80
2023-03-29T21:49:58.428Z,8.80
2023-03-29T21:52:25.487Z,8.90
2023-03-29T21:54:52.388Z,8.80
2023-03-29T21:57:19.247Z,8.80
2023-03-29T21:59:46.119Z,8.80
2023-03-29T22:02:13.039Z,8.80
2023-03-29T22:04:40.008Z,8.80
2023-03-29T22:07:08.331Z,8.80
2023-03-29T22:09:35.409Z,8.80
2023-03-29T22:12:04.596Z,8.90
2023-03-29T22:14:35.214Z,8.90
2023-03-29T22:17:05.868Z,8.80
2023-03-29T22:19:39.086Z,9.00
2023-03-29T22:22:07.117Z,8.90
2023-03-29T22:24:33.983Z,8.80
2023-03-29T22:27:00.818Z,8.90
2023-03-29T22:29:27.640Z,8.90
2023-03-29T22:31:54.552Z,8.80
2023-03-29T22:34:21.439Z,8.80
2023-03-29T22:36:48.333Z,8.90
2023-03-29T22:39:15.265Z,8.90
2023-03-29T22:41:42.227Z,8.90
2023-03-29T22:44:09.174Z,8.90
2023-03-29T22:46:36.174Z,8.90
2023-03-29T22:49:03.234Z,8.90
2023-03-29T22:51:30.021Z,8.90
2023-03-29T22:53:56.876Z,8.90
2023-03-29T22:56:24.818Z,9.00
2023-03-29T22:58:51.997Z,9.00
2023-03-29T23:01:18.877Z,9.00
2023-03-29T23:03:45.774Z,9.00
2023-03-29T23:06:12.689Z,9.00
2023-03-29T23:08:39.619Z,9.00
2023-03-29T23:11:07.445Z,9.00
2023-03-29T23:13:35.168Z,9.00
2023-03-29T23:16:03.777Z,8.90
2023-03-29T23:18:34.569Z,9.00
2023-03-29T23:21:01.769Z,9.00
2023-03-29T23:23:29.006Z,9.00
2023-03-29T23:25:56.488Z,9.00
2023-03-29T23:28:27.387Z,9.00
2023-03-29T23:31:01.079Z,8.90
2023-03-29T23:33:36.396Z,8.90
2023-03-29T23:36:05.537Z,8.90
2023-03-29T23:38:34.402Z,8.80
2023-03-29T23:41:03.676Z,8.80
2023-03-29T23:43:37.165Z,8.80
2023-03-29T23:46:06.975Z,8.90
2023-03-29T23:48:34.415Z,8.90
2023-03-29T23:51:02.345Z,8.90
2023-03-29T23:53:30.454Z,9.00
2023-03-29T23:56:02.061Z,9.10
2023-03-29T23:58:30.878Z,9.00
